Freeland, Michigan
Current Conditions -  °F | °C
As of 12:53 PM on Thursday 23 Oct 2014 (Local Time) from KMBS Reporting Station
Overcast Overcast  
Wind Chill: 40°   Ceiling: 1400
Heat Index: 45°   Visibility: 10mi
Dew Point: 38°   Wind: 9mph
Humidity: 76%   Direction: 280°W
Pressure: 30.25"   Gusts: NA
Location:  43.52°N, 84.12°W
Report Text: KMBS 231653Z 28008KT 10SM OVC014 07/03 A3025 RMK AO2 SLP248 T00720033
Loading
Personal Weather Stations






























Interactive Weather Map
Tropical Storm Tracking
New forecast layout! Learn more

10-Day Weather Forecast

Advertisements
Track Severe Weather on mobile